createdAt,value
2023-09-30T00:02:22.614Z,11.66
2023-09-30T00:04:50.812Z,11.71
2023-09-30T00:07:17.620Z,11.75
2023-09-30T00:09:44.478Z,11.82
2023-09-30T00:12:11.165Z,11.84
2023-09-30T00:14:38.000Z,11.77
2023-09-30T00:17:04.865Z,11.88
2023-09-30T00:19:31.794Z,11.89
2023-09-30T00:21:59.903Z,11.96
2023-09-30T00:24:26.799Z,11.93
2023-09-30T00:26:53.475Z,11.89
2023-09-30T00:29:20.175Z,11.95
2023-09-30T00:31:46.833Z,11.99
2023-09-30T00:34:13.582Z,11.96
2023-09-30T00:36:40.572Z,11.97
2023-09-30T00:39:09.491Z,11.96
2023-09-30T00:41:36.438Z,11.93
2023-09-30T00:44:03.238Z,11.92
2023-09-30T00:46:31.877Z,11.86
2023-09-30T00:49:00.270Z,11.92
2023-09-30T00:51:27.526Z,11.92
2023-09-30T00:53:59.638Z,11.95
2023-09-30T00:56:30.406Z,11.88
2023-09-30T00:58:57.349Z,11.86
2023-09-30T01:01:24.424Z,11.98
2023-09-30T01:03:51.501Z,11.90
2023-09-30T01:06:18.343Z,11.92
2023-09-30T01:08:45.685Z,11.92
2023-09-30T01:11:13.520Z,11.93
2023-09-30T01:13:41.617Z,11.93
2023-09-30T01:16:09.992Z,12.01
2023-09-30T01:18:37.552Z,12.04
2023-09-30T01:21:05.829Z,12.03
2023-09-30T01:23:34.508Z,11.96
2023-09-30T01:26:02.799Z,11.92
2023-09-30T01:28:29.479Z,11.92
2023-09-30T01:30:56.212Z,11.83
2023-09-30T01:33:22.950Z,11.83
2023-09-30T01:35:49.884Z,11.82
2023-09-30T01:38:16.633Z,11.76
2023-09-30T01:40:44.813Z,11.74
2023-09-30T01:43:11.505Z,11.68
2023-09-30T01:45:38.301Z,11.62
2023-09-30T01:48:05.503Z,11.59
2023-09-30T01:50:32.272Z,11.54
2023-09-30T01:53:01.082Z,11.53
2023-09-30T01:55:27.746Z,11.48
2023-09-30T01:57:55.801Z,11.47
2023-09-30T02:00:22.687Z,11.44
2023-09-30T02:02:49.501Z,11.41
2023-09-30T02:05:16.319Z,11.43
2023-09-30T02:07:43.113Z,11.40
2023-09-30T02:10:10.434Z,11.43
2023-09-30T02:12:37.245Z,11.41
2023-09-30T02:15:06.589Z,11.35
2023-09-30T02:17:33.425Z,11.35
2023-09-30T02:20:00.190Z,11.42
2023-09-30T02:22:26.874Z,11.31
2023-09-30T02:24:53.935Z,11.40
2023-09-30T02:27:20.693Z,11.39
2023-09-30T02:29:47.505Z,11.42
2023-09-30T02:32:15.580Z,11.55
2023-09-30T02:34:42.251Z,11.62
2023-09-30T02:37:09.108Z,11.65
2023-09-30T02:39:35.798Z,11.72
2023-09-30T02:42:03.517Z,11.70
2023-09-30T02:44:30.284Z,11.71
2023-09-30T02:46:56.950Z,11.74
2023-09-30T02:49:25.014Z,11.79
2023-09-30T02:51:51.687Z,11.74
2023-09-30T02:54:18.604Z,11.70
2023-09-30T02:56:45.334Z,11.79
2023-09-30T02:59:11.992Z,11.82
2023-09-30T03:01:38.860Z,11.77
2023-09-30T03:04:07.411Z,11.82
2023-09-30T03:06:37.149Z,11.83
2023-09-30T03:09:04.098Z,11.73
2023-09-30T03:11:30.835Z,11.77
2023-09-30T03:13:57.730Z,11.68
2023-09-30T03:16:25.139Z,11.64
2023-09-30T03:18:52.180Z,11.70
2023-09-30T03:21:18.926Z,11.70
2023-09-30T03:23:47.068Z,11.59
2023-09-30T03:26:13.729Z,11.63
2023-09-30T03:28:40.814Z,11.70
2023-09-30T03:31:07.649Z,11.62
2023-09-30T03:33:35.253Z,11.73
2023-09-30T03:36:02.194Z,11.69
2023-09-30T03:38:29.170Z,11.76
2023-09-30T03:40:57.206Z,11.79
2023-09-30T03:43:24.018Z,11.65
2023-09-30T03:45:50.738Z,11.59
2023-09-30T03:48:17.643Z,11.62
2023-09-30T03:50:44.541Z,11.55
2023-09-30T03:53:11.387Z,11.55
2023-09-30T03:55:38.601Z,11.53
2023-09-30T03:58:06.656Z,11.59
2023-09-30T04:00:33.518Z,11.54
2023-09-30T04:03:00.468Z,11.60
2023-09-30T04:05:27.413Z,11.55
2023-09-30T04:07:54.143Z,11.48
2023-09-30T04:10:22.130Z,11.47
2023-09-30T04:12:49.004Z,11.54
2023-09-30T04:15:17.200Z,11.46
2023-09-30T04:17:43.889Z,11.47
2023-09-30T04:20:13.887Z,11.49
2023-09-30T04:22:40.601Z,11.33
2023-09-30T04:25:08.444Z,11.28
2023-09-30T04:27:35.220Z,11.32
2023-09-30T04:30:01.976Z,11.28
2023-09-30T04:32:30.478Z,11.21
2023-09-30T04:34:57.306Z,11.25
2023-09-30T04:37:24.022Z,11.14
2023-09-30T04:39:50.867Z,11.15
2023-09-30T04:42:17.817Z,11.05
2023-09-30T04:44:44.944Z,11.01
2023-09-30T04:47:11.826Z,11.00
2023-09-30T04:49:40.103Z,10.98
2023-09-30T04:52:06.812Z,10.91
2023-09-30T04:54:33.655Z,10.95
2023-09-30T04:57:00.397Z,10.89
2023-09-30T04:59:27.138Z,10.94
2023-09-30T05:01:53.912Z,10.94
2023-09-30T05:04:20.695Z,10.93
2023-09-30T05:06:49.004Z,10.93
2023-09-30T05:09:15.772Z,10.95
2023-09-30T05:11:42.511Z,11.02
2023-09-30T05:14:09.246Z,10.98
2023-09-30T05:16:36.731Z,10.96
2023-09-30T05:19:03.599Z,11.06
2023-09-30T05:21:30.471Z,11.01
2023-09-30T05:23:58.600Z,10.99
2023-09-30T05:26:25.553Z,10.99
2023-09-30T05:28:52.226Z,11.03
2023-09-30T05:31:19.041Z,11.00
2023-09-30T05:33:45.932Z,10.95
2023-09-30T05:36:12.582Z,10.98
2023-09-30T05:38:39.321Z,10.94
2023-09-30T05:41:07.324Z,10.99
2023-09-30T05:43:34.104Z,10.97
2023-09-30T05:46:02.453Z,11.03
2023-09-30T05:48:32.450Z,11.02
2023-09-30T05:50:59.271Z,11.06
2023-09-30T05:53:26.078Z,11.08
2023-09-30T05:55:52.927Z,11.10
2023-09-30T05:58:21.033Z,11.11
2023-09-30T06:00:48.045Z,11.15
2023-09-30T06:03:14.866Z,11.14
2023-09-30T06:05:42.450Z,11.18
2023-09-30T06:08:10.621Z,11.15
2023-09-30T06:10:37.429Z,11.19
2023-09-30T06:13:04.482Z,11.26
2023-09-30T06:15:32.583Z,11.36
2023-09-30T06:17:59.472Z,11.41
2023-09-30T06:20:27.044Z,11.44
2023-09-30T06:22:55.649Z,11.42
2023-09-30T06:25:24.831Z,11.43
2023-09-30T06:27:51.766Z,11.46
2023-09-30T06:30:19.316Z,11.52
2023-09-30T06:32:47.615Z,11.60
2023-09-30T06:35:14.826Z,11.56
2023-09-30T06:37:41.837Z,11.57
2023-09-30T06:40:14.130Z,11.63
2023-09-30T06:42:41.408Z,11.73
2023-09-30T06:45:09.357Z,11.78
2023-09-30T06:47:36.741Z,11.84
2023-09-30T06:50:09.757Z,11.94
2023-09-30T06:52:38.581Z,12.02
2023-09-30T06:55:06.621Z,12.10
2023-09-30T06:57:34.401Z,12.17
2023-09-30T07:00:01.127Z,12.26
2023-09-30T07:02:27.902Z,12.31
2023-09-30T07:04:54.649Z,12.42
2023-09-30T07:07:22.715Z,12.52
2023-09-30T07:09:49.485Z,12.62
2023-09-30T07:12:16.438Z,12.76
2023-09-30T07:14:43.130Z,12.90
2023-09-30T07:17:09.829Z,12.98
2023-09-30T07:19:37.547Z,13.10
2023-09-30T07:22:05.027Z,13.14
2023-09-30T07:24:33.466Z,13.27
2023-09-30T07:27:00.853Z,13.37
2023-09-30T07:29:29.713Z,13.43
2023-09-30T07:31:56.489Z,13.51
2023-09-30T07:34:23.343Z,13.56
2023-09-30T07:36:50.148Z,13.66
2023-09-30T07:39:16.891Z,13.74
2023-09-30T07:41:45.091Z,13.68
2023-09-30T07:44:12.061Z,13.70
2023-09-30T07:46:38.790Z,13.81
2023-09-30T07:49:05.589Z,13.87
2023-09-30T07:51:32.294Z,14.02
2023-09-30T07:54:07.497Z,14.14
2023-09-30T07:56:47.581Z,14.22
2023-09-30T07:59:14.402Z,14.31
2023-09-30T08:01:41.197Z,14.95
2023-09-30T08:04:08.049Z,14.96
2023-09-30T08:06:34.815Z,16.60
2023-09-30T08:09:03.910Z,18.68
2023-09-30T08:11:30.722Z,20.07
2023-09-30T08:13:59.488Z,20.99
2023-09-30T08:16:26.336Z,21.52
2023-09-30T08:18:53.227Z,21.22
2023-09-30T08:21:20.192Z,19.73
2023-09-30T08:23:58.693Z,18.67
2023-09-30T08:26:25.402Z,18.03
2023-09-30T08:28:52.146Z,17.65
2023-09-30T08:31:20.387Z,18.03
2023-09-30T08:33:47.203Z,18.91
2023-09-30T08:36:14.187Z,18.46
2023-09-30T08:38:42.379Z,18.25
2023-09-30T08:41:09.298Z,19.32
2023-09-30T08:43:39.240Z,21.78
2023-09-30T08:46:06.792Z,23.61
2023-09-30T08:48:35.723Z,24.85
2023-09-30T08:51:03.435Z,25.65
2023-09-30T08:53:30.885Z,26.49
2023-09-30T08:55:58.752Z,27.17
2023-09-30T08:58:28.050Z,27.62
2023-09-30T09:00:55.138Z,27.87
2023-09-30T09:03:22.013Z,27.73
2023-09-30T09:05:56.067Z,28.86
2023-09-30T09:08:23.025Z,28.68
2023-09-30T09:10:55.746Z,29.11
2023-09-30T09:13:22.504Z,29.16
2023-09-30T09:15:49.439Z,29.11
2023-09-30T09:18:33.325Z,30.03
2023-09-30T09:21:12.408Z,30.16
2023-09-30T09:23:43.776Z,30.38
2023-09-30T09:26:11.746Z,29.22
2023-09-30T09:28:39.280Z,28.53
2023-09-30T09:31:21.481Z,29.67
2023-09-30T09:33:48.343Z,29.03
2023-09-30T09:36:16.790Z,29.47
2023-09-30T09:38:48.048Z,29.67
2023-09-30T09:41:14.990Z,29.86
2023-09-30T09:43:42.547Z,30.05
2023-09-30T09:46:09.718Z,30.17
2023-09-30T09:48:37.353Z,30.23
2023-09-30T09:51:05.457Z,29.97
2023-09-30T09:53:35.986Z,30.56
2023-09-30T09:56:04.041Z,30.52
2023-09-30T09:58:34.434Z,29.39
2023-09-30T10:01:02.329Z,28.95
2023-09-30T10:03:29.432Z,27.63
2023-09-30T10:05:56.779Z,26.63
2023-09-30T10:08:32.842Z,26.01
2023-09-30T10:11:02.672Z,27.46
2023-09-30T10:13:51.396Z,27.93
2023-09-30T10:16:48.096Z,27.55
2023-09-30T10:19:16.397Z,27.85
2023-09-30T10:22:23.931Z,29.56
2023-09-30T10:24:51.922Z,29.57
2023-09-30T10:27:36.325Z,30.08
2023-09-30T10:30:11.178Z,28.78
2023-09-30T10:33:17.040Z,29.43
2023-09-30T10:35:48.994Z,29.58
2023-09-30T10:38:40.569Z,31.76
2023-09-30T10:41:10.464Z,31.83
2023-09-30T10:43:40.064Z,32.69
2023-09-30T10:46:33.527Z,33.83
2023-09-30T10:49:16.294Z,34.49
2023-09-30T10:51:43.514Z,33.72
2023-09-30T10:54:13.460Z,33.87
2023-09-30T10:56:40.211Z,34.35
2023-09-30T10:59:08.374Z,33.63
2023-09-30T11:01:36.171Z,33.23
2023-09-30T11:04:05.033Z,33.79
2023-09-30T11:06:32.485Z,33.09
2023-09-30T11:09:01.241Z,33.23
2023-09-30T11:11:38.632Z,34.22
2023-09-30T11:14:19.371Z,33.92
2023-09-30T11:16:46.629Z,33.74
2023-09-30T11:19:13.752Z,32.96
2023-09-30T11:21:40.958Z,32.83
2023-09-30T11:24:09.088Z,33.45
2023-09-30T11:26:38.443Z,32.92
2023-09-30T11:29:07.287Z,31.94
2023-09-30T11:31:38.481Z,32.63
2023-09-30T11:34:05.529Z,32.45
2023-09-30T11:36:32.395Z,32.58
2023-09-30T11:39:01.275Z,33.33
2023-09-30T11:41:34.751Z,34.26
2023-09-30T11:44:06.993Z,34.28
2023-09-30T11:46:48.823Z,34.56
2023-09-30T11:49:25.816Z,34.07
2023-09-30T11:51:52.713Z,33.21
2023-09-30T11:54:19.767Z,32.52
2023-09-30T11:56:46.451Z,32.11
2023-09-30T11:59:13.168Z,30.81
2023-09-30T12:01:41.274Z,29.61
2023-09-30T12:04:08.284Z,28.62
2023-09-30T12:06:35.105Z,27.73
2023-09-30T12:09:01.906Z,26.90
2023-09-30T12:11:28.687Z,25.72
2023-09-30T12:13:55.405Z,25.38
2023-09-30T12:16:22.178Z,25.19
2023-09-30T12:18:50.363Z,25.93
2023-09-30T12:21:17.092Z,26.92
2023-09-30T12:23:43.808Z,26.70
2023-09-30T12:26:14.362Z,27.08
2023-09-30T12:28:42.734Z,27.52
2023-09-30T12:31:09.461Z,27.82
2023-09-30T12:33:36.320Z,27.77
2023-09-30T12:36:05.093Z,27.65
2023-09-30T12:38:31.865Z,28.18
2023-09-30T12:40:58.770Z,28.69
2023-09-30T12:43:25.628Z,28.60
2023-09-30T12:45:52.409Z,29.21
2023-09-30T12:48:19.221Z,29.28
2023-09-30T12:50:46.047Z,28.69
2023-09-30T12:53:14.920Z,28.13
2023-09-30T12:55:42.113Z,27.30
2023-09-30T12:58:08.959Z,26.53
2023-09-30T13:00:35.917Z,25.85
2023-09-30T13:03:03.109Z,25.41
2023-09-30T13:05:30.236Z,25.05
2023-09-30T13:07:57.169Z,24.86
2023-09-30T13:10:25.724Z,24.72
2023-09-30T13:12:52.954Z,24.78
2023-09-30T13:15:20.229Z,25.09
2023-09-30T13:17:47.022Z,25.00
2023-09-30T13:20:13.920Z,24.95
2023-09-30T13:22:40.671Z,25.00
2023-09-30T13:25:08.693Z,25.03
2023-09-30T13:27:37.015Z,24.83
2023-09-30T13:30:04.494Z,24.52
2023-09-30T13:32:31.299Z,24.45
2023-09-30T13:34:58.350Z,24.22
2023-09-30T13:37:25.043Z,24.06
2023-09-30T13:39:51.775Z,23.74
2023-09-30T13:42:18.540Z,23.50
2023-09-30T13:44:46.716Z,23.62
2023-09-30T13:47:16.187Z,23.85
2023-09-30T13:49:43.092Z,23.86
2023-09-30T13:52:09.891Z,23.88
2023-09-30T13:54:36.840Z,24.03
2023-09-30T13:57:03.925Z,23.72
2023-09-30T13:59:30.697Z,23.70
2023-09-30T14:01:59.021Z,23.80
2023-09-30T14:04:25.704Z,23.70
2023-09-30T14:06:52.495Z,23.78
2023-09-30T14:09:29.638Z,23.78
2023-09-30T14:12:02.594Z,23.99
2023-09-30T14:14:29.304Z,24.21
2023-09-30T14:16:56.056Z,24.46
2023-09-30T14:19:24.185Z,24.71
2023-09-30T14:21:51.001Z,24.80
2023-09-30T14:24:17.817Z,24.75
2023-09-30T14:26:44.848Z,25.38
2023-09-30T14:29:11.742Z,25.33
2023-09-30T14:31:38.688Z,25.09
2023-09-30T14:34:05.490Z,24.74
2023-09-30T14:36:33.687Z,24.21
2023-09-30T14:39:13.981Z,23.72
2023-09-30T14:41:41.956Z,23.42
2023-09-30T14:44:09.292Z,23.19
2023-09-30T14:46:36.195Z,22.79
2023-09-30T14:49:03.194Z,22.65
2023-09-30T14:51:32.772Z,22.53
2023-09-30T14:53:59.538Z,22.39
2023-09-30T14:56:26.678Z,22.09
2023-09-30T14:58:53.496Z,22.00
2023-09-30T15:01:20.269Z,21.77
2023-09-30T15:03:47.141Z,21.66
2023-09-30T15:06:14.015Z,21.39
2023-09-30T15:08:42.171Z,21.32
2023-09-30T15:11:14.034Z,21.26
2023-09-30T15:13:40.868Z,21.15
2023-09-30T15:16:14.862Z,21.14
2023-09-30T15:18:41.749Z,21.19
2023-09-30T15:21:08.493Z,21.12
2023-09-30T15:23:35.344Z,21.18
2023-09-30T15:26:03.421Z,21.08
2023-09-30T15:28:30.072Z,21.09
2023-09-30T15:30:57.672Z,21.03
2023-09-30T15:33:24.591Z,20.90
2023-09-30T15:35:51.378Z,20.89
2023-09-30T15:38:18.831Z,20.88
2023-09-30T15:40:52.947Z,20.75
2023-09-30T15:43:21.195Z,20.51
2023-09-30T15:45:48.168Z,20.47
2023-09-30T15:48:15.076Z,20.36
2023-09-30T15:50:41.764Z,20.32
2023-09-30T15:53:08.575Z,20.17
2023-09-30T15:55:35.366Z,20.06
2023-09-30T15:58:02.357Z,19.86
2023-09-30T16:00:30.559Z,19.66
2023-09-30T16:02:57.555Z,19.67
2023-09-30T16:05:24.494Z,19.62
2023-09-30T16:07:51.354Z,19.63
2023-09-30T16:10:18.123Z,19.50
2023-09-30T16:12:45.027Z,19.36
2023-09-30T16:15:11.850Z,19.37
2023-09-30T16:17:40.171Z,19.34
2023-09-30T16:20:08.104Z,19.34
2023-09-30T16:22:34.955Z,19.07
2023-09-30T16:25:01.760Z,18.94
2023-09-30T16:27:28.810Z,18.85
2023-09-30T16:29:55.609Z,18.74
2023-09-30T16:32:22.330Z,18.61
2023-09-30T16:34:50.571Z,18.50
2023-09-30T16:37:17.475Z,18.47
2023-09-30T16:39:44.512Z,18.28
2023-09-30T16:42:11.250Z,18.11
2023-09-30T16:44:38.014Z,17.99
2023-09-30T16:47:04.749Z,17.86
2023-09-30T16:49:32.822Z,17.84
2023-09-30T16:52:01.168Z,17.55
2023-09-30T16:54:27.849Z,17.48
2023-09-30T16:56:54.528Z,17.38
2023-09-30T16:59:21.228Z,17.22
2023-09-30T17:01:48.032Z,17.25
2023-09-30T17:04:14.913Z,17.12
2023-09-30T17:06:41.822Z,16.95
2023-09-30T17:09:09.873Z,16.82
2023-09-30T17:11:36.698Z,16.74
2023-09-30T17:14:03.537Z,16.61
2023-09-30T17:16:30.414Z,16.65
2023-09-30T17:18:57.504Z,16.70
2023-09-30T17:21:24.396Z,16.47
2023-09-30T17:23:51.136Z,16.35
2023-09-30T17:26:19.419Z,16.24
2023-09-30T17:28:47.444Z,16.20
2023-09-30T17:31:15.887Z,16.08
2023-09-30T17:33:42.880Z,16.08
2023-09-30T17:36:09.921Z,16.06
2023-09-30T17:38:37.211Z,15.89
2023-09-30T17:41:05.189Z,15.78
2023-09-30T17:43:33.470Z,15.84
2023-09-30T17:46:07.688Z,15.67
2023-09-30T17:48:34.516Z,15.55
2023-09-30T17:51:01.397Z,15.45
2023-09-30T17:53:28.096Z,15.52
2023-09-30T17:55:55.154Z,15.43
2023-09-30T17:58:21.757Z,15.28
2023-09-30T18:00:50.908Z,15.27
2023-09-30T18:03:17.853Z,15.29
2023-09-30T18:05:44.683Z,15.17
2023-09-30T18:08:11.458Z,15.23
2023-09-30T18:10:38.153Z,15.19
2023-09-30T18:13:04.887Z,15.19
2023-09-30T18:15:31.809Z,15.16
2023-09-30T18:18:11.404Z,15.12
2023-09-30T18:20:39.937Z,14.93
2023-09-30T18:23:06.764Z,14.82
2023-09-30T18:25:33.511Z,14.88
2023-09-30T18:28:00.694Z,14.78
2023-09-30T18:30:27.550Z,14.79
2023-09-30T18:32:54.328Z,14.80
2023-09-30T18:35:22.494Z,14.79
2023-09-30T18:37:49.246Z,14.72
2023-09-30T18:40:15.993Z,14.57
2023-09-30T18:42:42.849Z,14.49
2023-09-30T18:45:10.403Z,14.52
2023-09-30T18:47:37.160Z,14.57
2023-09-30T18:50:04.358Z,14.42
2023-09-30T18:52:32.510Z,14.44
2023-09-30T18:54:59.268Z,14.42
2023-09-30T18:57:25.954Z,14.55
2023-09-30T18:59:52.712Z,14.50
2023-09-30T19:02:19.364Z,14.54
2023-09-30T19:04:46.091Z,14.62
2023-09-30T19:07:12.863Z,14.53
2023-09-30T19:09:41.046Z,14.63
2023-09-30T19:12:07.816Z,14.65
2023-09-30T19:14:34.435Z,14.63
2023-09-30T19:17:01.239Z,14.70
2023-09-30T19:19:28.167Z,14.77
2023-09-30T19:21:54.908Z,14.80
2023-09-30T19:24:21.547Z,14.86
2023-09-30T19:26:49.556Z,14.93
2023-09-30T19:29:16.216Z,14.89
2023-09-30T19:31:42.937Z,14.87
2023-09-30T19:34:09.829Z,14.80
2023-09-30T19:36:36.518Z,14.77
2023-09-30T19:39:03.290Z,14.75
2023-09-30T19:41:29.990Z,14.74
2023-09-30T19:43:58.279Z,14.65
2023-09-30T19:46:25.349Z,14.68
2023-09-30T19:48:52.101Z,14.63
2023-09-30T19:51:25.176Z,14.71
2023-09-30T19:53:51.916Z,14.68
2023-09-30T19:56:18.611Z,14.56
2023-09-30T19:58:45.916Z,14.58
2023-09-30T20:01:14.107Z,14.52
2023-09-30T20:03:41.093Z,14.45
2023-09-30T20:06:18.340Z,14.38
2023-09-30T20:08:44.994Z,14.33
2023-09-30T20:11:18.175Z,14.23
2023-09-30T20:13:44.893Z,14.14
2023-09-30T20:16:11.589Z,14.04
2023-09-30T20:18:39.691Z,14.02
2023-09-30T20:21:06.487Z,14.01
2023-09-30T20:23:33.152Z,13.87
2023-09-30T20:25:59.960Z,13.87
2023-09-30T20:28:26.598Z,13.84
2023-09-30T20:30:53.423Z,13.71
2023-09-30T20:33:20.219Z,13.68
2023-09-30T20:35:48.805Z,13.69
2023-09-30T20:38:15.457Z,13.52
2023-09-30T20:40:42.214Z,13.40
2023-09-30T20:43:08.965Z,13.42
2023-09-30T20:45:35.881Z,13.35
2023-09-30T20:48:03.455Z,13.42
2023-09-30T20:50:30.234Z,13.40
2023-09-30T20:52:59.782Z,13.31
2023-09-30T20:55:26.846Z,13.30
2023-09-30T20:57:53.628Z,13.30
2023-09-30T21:00:20.506Z,13.23
2023-09-30T21:02:47.444Z,13.20
2023-09-30T21:05:14.652Z,13.18
2023-09-30T21:07:41.362Z,13.07
2023-09-30T21:10:10.405Z,13.03
2023-09-30T21:12:37.098Z,12.95
2023-09-30T21:15:06.390Z,13.03
2023-09-30T21:17:33.465Z,13.01
2023-09-30T21:20:00.222Z,12.98
2023-09-30T21:22:26.920Z,12.97
2023-09-30T21:24:53.624Z,12.97
2023-09-30T21:27:21.809Z,12.96
2023-09-30T21:29:48.428Z,12.88
2023-09-30T21:32:15.566Z,12.90
2023-09-30T21:34:42.314Z,12.91
2023-09-30T21:37:09.159Z,12.86
2023-09-30T21:39:35.993Z,12.79
2023-09-30T21:42:02.796Z,12.80
2023-09-30T21:44:30.908Z,12.77
2023-09-30T21:46:57.686Z,12.80
2023-09-30T21:49:24.326Z,12.75
2023-09-30T21:51:51.118Z,12.70
2023-09-30T21:54:17.850Z,12.63
2023-09-30T21:56:44.596Z,12.67
2023-09-30T21:59:11.279Z,12.78
2023-09-30T22:01:39.584Z,12.77
2023-09-30T22:04:06.578Z,12.91
2023-09-30T22:06:33.439Z,13.04
2023-09-30T22:09:00.421Z,13.12
2023-09-30T22:11:27.316Z,13.07
2023-09-30T22:13:54.064Z,12.92
2023-09-30T22:16:20.952Z,12.96
2023-09-30T22:18:49.152Z,12.86
2023-09-30T22:21:16.098Z,12.83
2023-09-30T22:23:42.762Z,12.81
2023-09-30T22:26:09.456Z,12.75
2023-09-30T22:28:36.084Z,12.67
2023-09-30T22:31:02.869Z,12.64
2023-09-30T22:33:29.743Z,12.65
2023-09-30T22:35:57.857Z,12.57
2023-09-30T22:38:24.533Z,12.59
2023-09-30T22:40:51.143Z,12.55
2023-09-30T22:43:17.900Z,12.49
2023-09-30T22:45:44.694Z,12.54
2023-09-30T22:48:11.549Z,12.50
2023-09-30T22:50:38.275Z,12.45
2023-09-30T22:53:07.253Z,12.44
2023-09-30T22:55:34.208Z,12.41
2023-09-30T22:58:01.642Z,12.45
2023-09-30T23:00:29.009Z,12.42
2023-09-30T23:02:56.325Z,12.42
2023-09-30T23:05:23.637Z,12.32
2023-09-30T23:07:50.331Z,12.33
2023-09-30T23:10:18.579Z,12.25
2023-09-30T23:12:45.744Z,12.17
2023-09-30T23:15:15.159Z,12.12
2023-09-30T23:17:45.057Z,12.14
2023-09-30T23:20:13.704Z,12.16
2023-09-30T23:22:41.100Z,12.14
2023-09-30T23:25:08.796Z,12.13
2023-09-30T23:27:36.895Z,12.03
2023-09-30T23:30:04.179Z,11.97
2023-09-30T23:32:30.808Z,12.02
2023-09-30T23:34:57.535Z,11.96
2023-09-30T23:37:24.248Z,11.93
2023-09-30T23:39:50.919Z,11.87
2023-09-30T23:42:17.706Z,11.90
2023-09-30T23:44:45.846Z,11.88
2023-09-30T23:47:12.808Z,11.78
2023-09-30T23:49:39.718Z,11.78
2023-09-30T23:52:06.696Z,11.80
2023-09-30T23:54:33.395Z,11.80
2023-09-30T23:57:00.170Z,11.81
2023-09-30T23:59:26.893Z,11.75
